createdAt,value
2024-04-18T00:02:30.166Z,70.26
2024-04-18T00:05:34.903Z,70.40
2024-04-18T00:08:39.576Z,69.45
2024-04-18T00:11:43.058Z,70.74
2024-04-18T00:14:52.407Z,70.51
2024-04-18T00:17:54.943Z,69.89
2024-04-18T00:20:59.681Z,70.75
2024-04-18T00:24:01.684Z,70.27
2024-04-18T00:27:06.468Z,70.51
2024-04-18T00:30:11.727Z,70.72
2024-04-18T00:33:16.405Z,70.64
2024-04-18T00:36:18.493Z,70.57
2024-04-18T00:39:23.307Z,71.27
2024-04-18T00:42:27.932Z,70.63
2024-04-18T00:45:32.674Z,71.00
2024-04-18T00:48:38.009Z,71.00
2024-04-18T00:51:42.941Z,71.61
2024-04-18T00:54:44.899Z,71.35
2024-04-18T00:57:50.339Z,71.77
2024-04-18T01:00:58.012Z,71.60
2024-04-18T01:04:03.573Z,72.24
2024-04-18T01:07:05.985Z,72.41
2024-04-18T01:10:11.371Z,71.58
2024-04-18T01:13:13.512Z,72.17
2024-04-18T01:16:22.300Z,72.19
2024-04-18T01:19:24.646Z,72.03
2024-04-18T01:22:31.123Z,71.39
2024-04-18T01:25:33.519Z,71.70
2024-04-18T01:28:41.022Z,72.75
2024-04-18T01:31:43.139Z,72.11
2024-04-18T01:34:48.128Z,71.76
2024-04-18T01:37:50.372Z,71.91
2024-04-18T01:40:55.183Z,72.60
2024-04-18T01:43:59.991Z,73.06
2024-04-18T01:47:04.543Z,71.96
2024-04-18T01:50:06.604Z,72.76
2024-04-18T01:53:11.087Z,72.18
2024-04-18T01:56:13.162Z,72.60
2024-04-18T01:59:20.547Z,73.27
2024-04-18T02:02:22.653Z,71.99
2024-04-18T02:05:27.384Z,72.73
2024-04-18T02:08:29.331Z,72.69
2024-04-18T02:11:34.066Z,72.84
2024-04-18T02:14:41.309Z,72.39
2024-04-18T02:17:43.335Z,71.80
2024-04-18T02:20:47.894Z,72.62
2024-04-18T02:23:49.973Z,72.20
2024-04-18T02:26:54.470Z,71.79
2024-04-18T02:29:59.165Z,71.94
2024-04-18T02:33:04.192Z,71.82
2024-04-18T02:36:09.209Z,72.07
2024-04-18T02:39:11.177Z,72.28
2024-04-18T02:42:17.581Z,71.83
2024-04-18T02:45:24.949Z,71.96
2024-04-18T02:48:29.697Z,72.22
2024-04-18T02:51:32.092Z,72.32
2024-04-18T02:54:36.841Z,72.40
2024-04-18T02:57:38.907Z,72.34
2024-04-18T03:00:46.164Z,72.25
2024-04-18T03:03:48.431Z,72.67
2024-04-18T03:06:53.239Z,72.39
2024-04-18T03:09:55.274Z,72.47
2024-04-18T03:12:59.954Z,71.60
2024-04-18T03:16:04.844Z,72.47
2024-04-18T03:19:14.630Z,72.66
2024-04-18T03:22:19.574Z,71.91
2024-04-18T03:25:21.624Z,72.59
2024-04-18T03:28:26.250Z,71.50
2024-04-18T03:31:33.591Z,72.80
2024-04-18T03:34:35.707Z,71.83
2024-04-18T03:37:40.434Z,72.38
2024-04-18T03:40:45.236Z,72.32
2024-04-18T03:43:49.890Z,72.52
2024-04-18T03:46:57.053Z,71.96
2024-04-18T03:50:01.760Z,72.46
2024-04-18T03:53:05.118Z,72.52
2024-04-18T03:56:09.794Z,72.68
2024-04-18T03:59:11.695Z,72.26
2024-04-18T04:02:19.151Z,71.92
2024-04-18T04:05:23.676Z,71.87
2024-04-18T04:08:25.822Z,72.56
2024-04-18T04:11:32.903Z,73.57
2024-04-18T04:14:35.119Z,72.78
2024-04-18T04:17:47.860Z,72.99
2024-04-18T04:20:49.947Z,72.58
2024-04-18T04:23:55.137Z,73.32
2024-04-18T04:26:57.076Z,73.11
2024-04-18T04:30:02.173Z,72.86
2024-04-18T04:33:09.481Z,72.83
2024-04-18T04:36:11.409Z,72.28
2024-04-18T04:39:16.117Z,71.80
2024-04-18T04:42:18.213Z,71.56
2024-04-18T04:45:22.762Z,72.00
2024-04-18T04:48:32.148Z,73.23
2024-04-18T04:51:35.780Z,72.20
2024-04-18T04:54:43.485Z,70.46
2024-04-18T04:57:48.477Z,69.65
2024-04-18T05:00:55.072Z,68.33
2024-04-18T05:04:00.095Z,68.10
2024-04-18T05:07:04.841Z,67.85
2024-04-18T05:10:08.777Z,66.06
2024-04-18T05:13:13.651Z,66.27
2024-04-18T05:16:16.229Z,65.91
2024-04-18T05:19:24.143Z,66.20
2024-04-18T05:22:28.798Z,67.89
2024-04-18T05:25:30.830Z,66.47
2024-04-18T05:28:42.400Z,69.03
2024-04-18T05:31:44.347Z,68.70
2024-04-18T05:34:51.666Z,68.91
2024-04-18T05:37:56.801Z,68.33
2024-04-18T05:41:01.462Z,69.23
2024-04-18T05:44:06.032Z,68.86
2024-04-18T05:47:11.326Z,68.00
2024-04-18T05:50:18.536Z,70.08
2024-04-18T05:53:23.238Z,69.00
2024-04-18T05:56:27.935Z,70.07
2024-04-18T05:59:32.615Z,69.75
2024-04-18T06:02:37.310Z,68.72
2024-04-18T06:05:44.588Z,66.81
2024-04-18T06:08:51.331Z,66.98
2024-04-18T06:11:56.026Z,67.51
2024-04-18T06:15:01.230Z,67.32
2024-04-18T06:18:06.278Z,67.77
2024-04-18T06:21:14.045Z,67.34
2024-04-18T06:24:18.736Z,63.72
2024-04-18T06:27:23.464Z,61.45
2024-04-18T06:30:28.085Z,61.46
2024-04-18T06:33:33.259Z,59.17
2024-04-18T06:36:40.762Z,58.34
2024-04-18T06:39:45.988Z,56.80
2024-04-18T06:42:50.721Z,56.46
2024-04-18T06:45:56.548Z,54.01
2024-04-18T06:49:01.296Z,53.85
2024-04-18T06:52:09.111Z,52.08
2024-04-18T06:55:13.647Z,51.67
2024-04-18T06:58:18.325Z,51.88
2024-04-18T07:01:22.982Z,49.66
2024-04-18T07:04:27.743Z,46.96
2024-04-18T07:07:35.102Z,47.76
2024-04-18T07:10:39.650Z,47.59
2024-04-18T07:13:44.300Z,48.32
2024-04-18T07:16:48.793Z,46.57
2024-04-18T07:19:53.447Z,43.98
2024-04-18T07:23:00.623Z,44.82
2024-04-18T07:26:05.329Z,44.76
2024-04-18T07:29:09.834Z,42.77
2024-04-18T07:32:14.522Z,45.25
2024-04-18T07:35:19.214Z,44.11
2024-04-18T07:38:26.801Z,42.14
2024-04-18T07:41:31.453Z,41.09
2024-04-18T07:44:36.124Z,38.73
2024-04-18T07:47:41.661Z,39.16
2024-04-18T07:50:46.396Z,39.03
2024-04-18T07:53:53.528Z,39.39
2024-04-18T07:56:58.398Z,38.15
2024-04-18T08:00:05.792Z,37.21
2024-04-18T08:03:13.003Z,36.45
2024-04-18T08:09:29.973Z,36.15
2024-04-18T08:12:40.364Z,35.26
2024-04-18T08:18:55.520Z,34.36
2024-04-18T08:22:01.668Z,35.37
2024-04-18T08:25:10.580Z,33.92
2024-04-18T08:28:15.487Z,34.73
2024-04-18T08:31:19.969Z,33.72
2024-04-18T08:34:25.253Z,34.85
2024-04-18T08:37:30.328Z,32.52
2024-04-18T08:40:37.708Z,32.41
2024-04-18T08:43:45.255Z,35.24
2024-04-18T08:46:53.167Z,36.89
2024-04-18T08:49:58.493Z,35.86
2024-04-18T08:53:04.041Z,36.04
2024-04-18T08:56:14.141Z,34.00
2024-04-18T08:59:18.796Z,32.35
2024-04-18T09:02:24.297Z,33.05
2024-04-18T09:05:28.994Z,34.77
2024-04-18T09:08:34.866Z,35.18
2024-04-18T09:11:42.058Z,35.88
2024-04-18T09:14:46.924Z,37.50
2024-04-18T09:18:03.444Z,37.67
2024-04-18T09:21:11.199Z,37.24
2024-04-18T09:24:15.882Z,36.07
2024-04-18T09:27:23.505Z,35.96
2024-04-18T09:30:28.923Z,37.03
2024-04-18T09:33:35.848Z,36.71
2024-04-18T09:36:43.381Z,37.37
2024-04-18T09:39:49.872Z,37.08
2024-04-18T09:43:02.187Z,37.02
2024-04-18T09:46:09.714Z,37.47
2024-04-18T09:49:15.544Z,37.29
2024-04-18T09:52:20.957Z,37.72
2024-04-18T09:55:28.660Z,37.70
2024-04-18T09:58:39.527Z,39.09
2024-04-18T10:01:45.979Z,38.91
2024-04-18T10:04:50.851Z,39.20
2024-04-18T10:07:57.695Z,37.49
2024-04-18T10:11:10.028Z,37.96
2024-04-18T10:14:18.247Z,38.54
2024-04-18T10:17:26.766Z,38.66
2024-04-18T10:20:31.893Z,38.50
2024-04-18T10:23:36.614Z,38.20
2024-04-18T10:26:41.518Z,37.15
2024-04-18T10:29:59.003Z,38.26
2024-04-18T10:33:03.780Z,38.89
2024-04-18T10:36:11.296Z,39.28
2024-04-18T10:39:32.511Z,42.77
2024-04-18T10:42:41.200Z,46.85
2024-04-18T10:45:49.214Z,47.48
2024-04-18T10:48:58.397Z,46.52
2024-04-18T10:52:05.038Z,47.20
2024-04-18T10:55:10.227Z,45.54
2024-04-18T10:58:16.700Z,45.04
2024-04-18T11:01:24.140Z,43.58
2024-04-18T11:04:29.801Z,43.17
2024-04-18T11:07:34.360Z,43.07
2024-04-18T11:10:41.335Z,41.20
2024-04-18T11:13:46.069Z,41.87
2024-04-18T11:17:01.826Z,41.92
2024-04-18T11:20:07.205Z,43.12
2024-04-18T11:23:15.544Z,42.75
2024-04-18T11:26:21.917Z,40.47
2024-04-18T11:29:29.217Z,39.33
2024-04-18T11:32:36.940Z,36.97
2024-04-18T11:35:41.994Z,34.54
2024-04-18T11:38:46.670Z,34.03
2024-04-18T11:41:51.142Z,34.34
2024-04-18T11:44:55.862Z,34.67
2024-04-18T11:48:03.148Z,33.86
2024-04-18T11:51:08.149Z,33.04
2024-04-18T11:54:12.704Z,33.63
2024-04-18T11:57:17.579Z,31.66
2024-04-18T12:00:22.224Z,30.79
2024-04-18T12:03:32.083Z,30.54
2024-04-18T12:06:36.826Z,31.94
2024-04-18T12:09:44.427Z,29.40
2024-04-18T12:12:49.197Z,31.39
2024-04-18T12:15:53.962Z,32.59
2024-04-18T12:19:01.187Z,33.53
2024-04-18T12:22:10.317Z,32.99
2024-04-18T12:25:14.848Z,32.62
2024-04-18T12:28:19.390Z,32.88
2024-04-18T12:31:24.072Z,32.42
2024-04-18T12:34:31.545Z,33.20
2024-04-18T12:37:36.112Z,33.31
2024-04-18T12:40:40.724Z,33.04
2024-04-18T12:43:46.074Z,32.28
2024-04-18T12:46:50.682Z,32.84
2024-04-18T12:49:57.900Z,32.00
2024-04-18T12:53:02.546Z,32.65
2024-04-18T12:56:07.787Z,31.31
2024-04-18T12:59:12.538Z,31.95
2024-04-18T13:02:18.507Z,31.37
2024-04-18T13:05:26.158Z,29.58
2024-04-18T13:08:30.992Z,30.88
2024-04-18T13:11:35.728Z,30.85
2024-04-18T13:14:40.251Z,29.41
2024-04-18T13:17:46.562Z,28.68
2024-04-18T13:20:53.890Z,29.41
2024-04-18T13:23:58.512Z,29.53
2024-04-18T13:27:03.459Z,30.46
2024-04-18T13:30:09.149Z,30.94
2024-04-18T13:33:14.008Z,32.78
2024-04-18T13:36:21.415Z,32.39
2024-04-18T13:39:26.199Z,32.90
2024-04-18T13:42:30.800Z,34.38
2024-04-18T13:45:36.667Z,33.07
2024-04-18T13:48:41.546Z,32.73
2024-04-18T13:51:48.972Z,32.54
2024-04-18T13:54:53.573Z,31.78
2024-04-18T13:57:59.842Z,31.03
2024-04-18T14:01:04.715Z,30.82
2024-04-18T14:04:09.327Z,29.77
2024-04-18T14:07:16.725Z,30.52
2024-04-18T14:10:22.129Z,29.21
2024-04-18T14:13:26.912Z,29.51
2024-04-18T14:16:47.289Z,29.00
2024-04-18T14:19:52.035Z,30.23
2024-04-18T14:22:59.181Z,29.78
2024-04-18T14:26:03.927Z,29.27
2024-04-18T14:29:08.430Z,28.85
2024-04-18T14:32:15.925Z,28.66
2024-04-18T14:35:20.447Z,29.41
2024-04-18T14:38:27.877Z,29.64
2024-04-18T14:41:32.906Z,29.32
2024-04-18T14:44:38.152Z,29.58
2024-04-18T14:47:42.933Z,29.65
2024-04-18T14:50:53.749Z,29.17
2024-04-18T14:54:01.261Z,29.16
2024-04-18T14:57:06.558Z,29.38
2024-04-18T15:00:12.081Z,29.66
2024-04-18T15:03:17.248Z,29.67
2024-04-18T15:06:22.617Z,30.47
2024-04-18T15:09:30.164Z,30.22
2024-04-18T15:12:35.064Z,30.32
2024-04-18T15:15:40.128Z,30.19
2024-04-18T15:18:45.020Z,29.94
2024-04-18T15:21:49.943Z,30.39
2024-04-18T15:24:57.311Z,30.87
2024-04-18T15:28:02.141Z,30.72
2024-04-18T15:31:07.269Z,30.96
2024-04-18T15:34:12.473Z,31.28
2024-04-18T15:37:17.138Z,32.02
2024-04-18T15:40:24.700Z,32.72
2024-04-18T15:43:29.773Z,32.49
2024-04-18T15:46:34.607Z,32.28
2024-04-18T15:49:39.610Z,31.59
2024-04-18T15:52:46.761Z,31.20
2024-04-18T15:55:54.367Z,30.97
2024-04-18T15:59:00.762Z,30.35
2024-04-18T16:02:09.590Z,30.52
2024-04-18T16:05:14.236Z,31.13
2024-04-18T16:08:19.135Z,30.60
2024-04-18T16:11:26.569Z,31.44
2024-04-18T16:14:31.213Z,31.42
2024-04-18T16:17:36.009Z,31.68
2024-04-18T16:20:40.498Z,31.00
2024-04-18T16:23:44.995Z,31.52
2024-04-18T16:26:52.273Z,32.22
2024-04-18T16:29:56.946Z,32.65
2024-04-18T16:33:01.541Z,32.77
2024-04-18T16:36:06.971Z,32.55
2024-04-18T16:39:12.159Z,33.07
2024-04-18T16:42:19.720Z,32.79
2024-04-18T16:45:24.236Z,33.31
2024-04-18T16:48:29.026Z,32.68
2024-04-18T16:51:34.019Z,33.19
2024-04-18T16:54:38.722Z,33.96
2024-04-18T16:57:46.499Z,33.71
2024-04-18T17:00:51.593Z,34.69
2024-04-18T17:03:56.453Z,33.56
2024-04-18T17:07:01.400Z,33.78
2024-04-18T17:10:07.298Z,34.14
2024-04-18T17:13:14.601Z,33.17
2024-04-18T17:16:19.433Z,33.88
2024-04-18T17:19:24.401Z,34.14
2024-04-18T17:22:29.551Z,34.73
2024-04-18T17:25:34.104Z,35.09
2024-04-18T17:28:41.546Z,35.75
2024-04-18T17:31:46.359Z,35.64
2024-04-18T17:34:51.185Z,35.55
2024-04-18T17:37:55.818Z,36.12
2024-04-18T17:41:03.683Z,37.59
2024-04-18T17:44:11.432Z,37.44
2024-04-18T17:47:16.100Z,38.31
2024-04-18T17:50:20.746Z,38.07
2024-04-18T17:53:25.379Z,38.76
2024-04-18T17:56:30.175Z,39.23
2024-04-18T17:59:37.733Z,40.19
2024-04-18T18:02:42.464Z,40.35
2024-04-18T18:05:47.707Z,40.52
2024-04-18T18:08:52.338Z,40.67
2024-04-18T18:11:57.066Z,41.39
2024-04-18T18:15:04.575Z,41.37
2024-04-18T18:18:10.886Z,43.08
2024-04-18T18:21:15.650Z,42.77
2024-04-18T18:24:20.305Z,43.27
2024-04-18T18:27:24.950Z,44.23
2024-04-18T18:30:29.655Z,42.04
2024-04-18T18:33:34.345Z,42.67
2024-04-18T18:36:36.882Z,43.46
2024-04-18T18:39:41.902Z,44.24
2024-04-18T18:42:47.598Z,45.34
2024-04-18T18:45:55.378Z,46.57
2024-04-18T18:49:00.074Z,47.17
2024-04-18T18:52:04.866Z,48.58
2024-04-18T18:55:09.737Z,49.48
2024-04-18T18:58:11.822Z,48.96
2024-04-18T19:01:19.119Z,49.27
2024-04-18T19:04:21.448Z,49.82
2024-04-18T19:07:26.262Z,50.12
2024-04-18T19:10:28.559Z,50.34
2024-04-18T19:13:33.397Z,49.84
2024-04-18T19:16:40.656Z,50.14
2024-04-18T19:19:42.701Z,50.26
2024-04-18T19:22:48.199Z,49.96
2024-04-18T19:25:52.906Z,50.18
2024-04-18T19:28:55.089Z,49.93
2024-04-18T19:32:02.671Z,50.35
2024-04-18T19:35:05.488Z,49.81
2024-04-18T19:38:10.013Z,49.58
2024-04-18T19:41:12.306Z,50.11
2024-04-18T19:44:16.815Z,49.87
2024-04-18T19:47:24.316Z,50.20
2024-04-18T19:50:28.908Z,50.08
2024-04-18T19:53:30.973Z,50.90
2024-04-18T19:56:35.705Z,50.32
2024-04-18T19:59:41.591Z,51.40
2024-04-18T20:02:49.043Z,52.04
2024-04-18T20:05:53.557Z,52.22
2024-04-18T20:08:55.586Z,52.39
2024-04-18T20:12:01.551Z,52.92
2024-04-18T20:15:04.138Z,53.00
2024-04-18T20:18:11.540Z,53.11
2024-04-18T20:21:16.842Z,53.27
2024-04-18T20:24:21.554Z,53.80
2024-04-18T20:27:26.937Z,53.85
2024-04-18T20:30:31.591Z,54.22
2024-04-18T20:33:36.232Z,54.41
2024-04-18T20:36:40.877Z,54.60
2024-04-18T20:39:43.166Z,55.07
2024-04-18T20:42:48.630Z,55.05
2024-04-18T20:45:58.231Z,55.72
2024-04-18T20:49:03.401Z,56.58
2024-04-18T20:52:08.493Z,56.05
2024-04-18T20:55:13.182Z,55.70
2024-04-18T20:58:15.078Z,56.54
2024-04-18T21:01:20.050Z,57.15
2024-04-18T21:04:24.800Z,56.21
2024-04-18T21:07:29.501Z,56.97
2024-04-18T21:10:31.511Z,57.05
2024-04-18T21:13:36.191Z,57.56
2024-04-18T21:16:38.111Z,57.83
2024-04-18T21:19:45.381Z,57.59
2024-04-18T21:22:49.389Z,57.96
2024-04-18T21:25:54.064Z,58.47
2024-04-18T21:28:57.040Z,58.22
2024-04-18T21:32:01.719Z,58.65
2024-04-18T21:35:06.987Z,58.75
2024-04-18T21:38:11.661Z,59.35
2024-04-18T21:41:16.234Z,59.34
2024-04-18T21:44:18.328Z,59.73
2024-04-18T21:47:22.893Z,60.03
2024-04-18T21:50:27.578Z,60.30
2024-04-18T21:53:32.211Z,60.23
2024-04-18T21:56:34.117Z,60.63
2024-04-18T21:59:38.908Z,60.77
2024-04-18T22:02:41.083Z,61.78
2024-04-18T22:05:48.673Z,61.82
2024-04-18T22:08:53.493Z,62.95
2024-04-18T22:11:58.215Z,63.37
2024-04-18T22:15:00.523Z,63.21
2024-04-18T22:18:06.020Z,62.44
2024-04-18T22:21:14.021Z,63.45
2024-04-18T22:24:18.754Z,62.99
2024-04-18T22:27:23.315Z,63.80
2024-04-18T22:30:25.431Z,63.83
2024-04-18T22:33:31.101Z,63.55
2024-04-18T22:36:38.466Z,63.20
2024-04-18T22:39:40.464Z,64.00
2024-04-18T22:42:45.237Z,63.99
2024-04-18T22:45:47.285Z,64.05
2024-04-18T22:48:52.257Z,64.00
2024-04-18T22:51:59.526Z,64.54
2024-04-18T22:55:04.164Z,64.49
2024-04-18T22:58:08.066Z,64.96
2024-04-18T23:01:12.956Z,65.18
2024-04-18T23:04:15.203Z,65.24
2024-04-18T23:07:22.631Z,65.33
2024-04-18T23:10:24.574Z,65.34
2024-04-18T23:13:29.228Z,65.56
2024-04-18T23:16:33.920Z,65.63
2024-04-18T23:19:38.520Z,64.22
2024-04-18T23:22:43.256Z,65.09
2024-04-18T23:25:47.872Z,65.25
2024-04-18T23:28:52.531Z,65.36
2024-04-18T23:31:54.513Z,64.59
2024-04-18T23:34:59.586Z,65.70
2024-04-18T23:38:04.498Z,65.72
2024-04-18T23:41:09.069Z,65.58
2024-04-18T23:44:11.309Z,65.40
2024-04-18T23:47:15.905Z,65.71
2024-04-18T23:50:48.510Z,65.98
2024-04-18T23:53:56.407Z,65.77
2024-04-18T23:57:00.970Z,65.67
